createdAt,value
2023-04-09T00:01:05.806Z,73.80
2023-04-09T00:03:43.091Z,73.80
2023-04-09T00:06:15.075Z,73.90
2023-04-09T00:08:54.595Z,73.90
2023-04-09T00:11:29.599Z,73.90
2023-04-09T00:14:18.729Z,74.00
2023-04-09T00:16:55.156Z,74.10
2023-04-09T00:19:36.110Z,74.10
2023-04-09T00:22:19.676Z,74.20
2023-04-09T00:24:56.665Z,74.20
2023-04-09T00:27:31.112Z,74.20
2023-04-09T00:30:08.544Z,74.30
2023-04-09T00:32:46.034Z,74.30
2023-04-09T00:35:17.558Z,74.30
2023-04-09T00:37:55.078Z,74.30
2023-04-09T00:40:29.410Z,74.40
2023-04-09T00:43:07.542Z,74.50
2023-04-09T00:45:46.833Z,74.50
2023-04-09T00:48:18.627Z,74.60
2023-04-09T00:50:50.678Z,74.70
2023-04-09T00:53:24.655Z,74.70
2023-04-09T00:55:56.780Z,74.70
2023-04-09T00:58:36.815Z,74.80
2023-04-09T01:01:21.837Z,74.80
2023-04-09T01:04:03.090Z,74.80
2023-04-09T01:06:50.353Z,74.80
2023-04-09T01:09:28.972Z,74.90
2023-04-09T01:12:14.824Z,75.00
2023-04-09T01:14:53.700Z,75.00
2023-04-09T01:17:41.193Z,75.00
2023-04-09T01:20:16.996Z,75.00
2023-04-09T01:23:11.337Z,75.00
2023-04-09T01:25:57.626Z,75.00
2023-04-09T01:28:39.534Z,75.10
2023-04-09T01:31:16.158Z,75.20
2023-04-09T01:33:53.158Z,75.20
2023-04-09T01:36:28.086Z,75.20
2023-04-09T01:39:09.544Z,75.20
2023-04-09T01:41:46.548Z,75.20
2023-04-09T01:44:27.749Z,75.30
2023-04-09T01:46:59.109Z,75.30
2023-04-09T01:49:31.481Z,75.40
2023-04-09T01:52:06.284Z,75.30
2023-04-09T01:54:36.932Z,75.40
2023-04-09T01:57:16.262Z,75.40
2023-04-09T01:59:55.932Z,75.40
2023-04-09T02:02:40.712Z,75.50
2023-04-09T02:05:27.271Z,75.50
2023-04-09T02:08:06.956Z,75.50
2023-04-09T02:10:45.421Z,75.50
2023-04-09T02:13:28.311Z,75.60
2023-04-09T02:16:05.282Z,75.60
2023-04-09T02:18:35.953Z,75.70
2023-04-09T02:21:06.559Z,75.70
2023-04-09T02:23:41.455Z,75.80
2023-04-09T02:26:15.360Z,75.90
2023-04-09T02:28:50.650Z,75.90
2023-04-09T02:31:28.244Z,76.00
2023-04-09T02:34:04.040Z,76.00
2023-04-09T02:36:33.700Z,76.10
2023-04-09T02:39:12.449Z,76.00
2023-04-09T02:41:52.607Z,76.00
2023-04-09T02:44:21.572Z,76.00
2023-04-09T02:47:00.071Z,76.10
2023-04-09T02:49:39.412Z,76.10
2023-04-09T02:52:14.493Z,76.20
2023-04-09T02:54:47.950Z,76.30
2023-04-09T02:57:25.220Z,76.20
2023-04-09T02:59:55.770Z,76.20
2023-04-09T03:02:34.353Z,76.20
2023-04-09T03:05:05.326Z,76.30
2023-04-09T03:07:45.625Z,76.30
2023-04-09T03:10:23.199Z,76.40
2023-04-09T03:13:01.990Z,76.30
2023-04-09T03:15:41.128Z,76.30
2023-04-09T03:18:17.084Z,76.40
2023-04-09T03:21:01.436Z,76.40
2023-04-09T03:23:38.196Z,76.50
2023-04-09T03:26:13.987Z,76.50
2023-04-09T03:29:02.134Z,76.50
2023-04-09T03:31:39.371Z,76.50
2023-04-09T03:34:36.758Z,76.50
2023-04-09T03:37:13.252Z,76.50
2023-04-09T03:40:05.221Z,76.50
2023-04-09T03:42:39.972Z,76.60
2023-04-09T03:45:14.243Z,76.60
2023-04-09T03:47:50.087Z,76.60
2023-04-09T03:50:37.206Z,76.70
2023-04-09T03:53:13.964Z,76.80
2023-04-09T03:55:46.681Z,76.80
2023-04-09T03:58:28.427Z,76.80
2023-04-09T04:00:57.156Z,76.90
2023-04-09T04:03:44.151Z,76.90
2023-04-09T04:06:45.943Z,76.90
2023-04-09T04:09:37.975Z,77.00
2023-04-09T04:12:17.980Z,77.00
2023-04-09T04:15:12.786Z,77.00
2023-04-09T04:17:53.036Z,77.00
2023-04-09T04:20:57.624Z,77.00
2023-04-09T04:23:32.690Z,77.00
2023-04-09T04:26:22.131Z,77.10
2023-04-09T04:28:53.963Z,77.10
2023-04-09T04:31:46.335Z,77.10
2023-04-09T04:34:19.143Z,77.20
2023-04-09T04:37:04.868Z,77.20
2023-04-09T04:39:54.587Z,77.20
2023-04-09T04:42:38.099Z,77.20
2023-04-09T04:45:15.651Z,77.20
2023-04-09T04:48:08.735Z,77.30
2023-04-09T04:50:41.873Z,77.30
2023-04-09T04:53:31.673Z,77.30
2023-04-09T04:56:18.967Z,77.30
2023-04-09T04:58:58.933Z,77.30
2023-04-09T05:01:29.646Z,77.30
2023-04-09T05:04:02.378Z,77.30
2023-04-09T05:07:02.236Z,77.40
2023-04-09T05:09:41.582Z,77.40
2023-04-09T05:12:41.196Z,77.50
2023-04-09T05:15:25.760Z,77.50
2023-04-09T05:18:00.641Z,77.60
2023-04-09T05:20:35.311Z,77.60
2023-04-09T05:23:26.040Z,77.60
2023-04-09T05:26:06.094Z,77.60
2023-04-09T05:29:03.561Z,77.70
2023-04-09T05:31:46.381Z,77.70
2023-04-09T05:34:27.929Z,77.80
2023-04-09T05:37:06.693Z,77.90
2023-04-09T05:39:40.429Z,77.90
2023-04-09T05:42:10.931Z,77.90
2023-04-09T05:44:53.271Z,77.90
2023-04-09T05:47:34.238Z,78.00
2023-04-09T05:50:14.954Z,78.00
2023-04-09T05:52:55.897Z,78.00
2023-04-09T05:55:43.229Z,78.00
2023-04-09T05:58:24.350Z,78.10
2023-04-09T06:01:04.600Z,78.10
2023-04-09T06:03:44.899Z,78.20
2023-04-09T06:06:25.636Z,78.30
2023-04-09T06:09:06.533Z,78.30
2023-04-09T06:11:43.895Z,78.40
2023-04-09T06:14:18.754Z,78.40
2023-04-09T06:16:55.750Z,78.30
2023-04-09T06:19:29.498Z,78.30
2023-04-09T06:22:02.276Z,78.30
2023-04-09T06:24:36.129Z,78.30
2023-04-09T06:27:08.444Z,78.30
2023-04-09T06:29:38.629Z,78.30
2023-04-09T06:32:18.318Z,78.10
2023-04-09T06:35:02.229Z,78.10
2023-04-09T06:37:47.057Z,78.00
2023-04-09T06:40:23.117Z,77.90
2023-04-09T06:43:03.109Z,77.90
2023-04-09T06:45:45.147Z,77.90
2023-04-09T06:48:22.395Z,77.90
2023-04-09T06:51:02.946Z,77.80
2023-04-09T06:53:39.039Z,77.80
2023-04-09T06:56:15.258Z,77.80
2023-04-09T06:58:49.323Z,77.60
2023-04-09T07:01:23.179Z,77.40
2023-04-09T07:04:08.265Z,77.50
2023-04-09T07:06:40.348Z,77.30
2023-04-09T07:09:14.824Z,77.30
2023-04-09T07:11:46.260Z,77.20
2023-04-09T07:14:25.095Z,77.10
2023-04-09T07:17:00.872Z,77.10
2023-04-09T07:19:40.003Z,77.10
2023-04-09T07:22:12.943Z,77.00
2023-04-09T07:24:52.532Z,76.80
2023-04-09T07:27:30.779Z,76.70
2023-04-09T07:30:01.412Z,76.50
2023-04-09T07:32:34.694Z,76.50
2023-04-09T07:35:13.445Z,76.50
2023-04-09T07:37:48.342Z,76.40
2023-04-09T07:40:16.794Z,76.30
2023-04-09T07:42:58.387Z,76.00
2023-04-09T07:45:29.061Z,76.10
2023-04-09T07:48:11.437Z,76.20
2023-04-09T07:50:47.457Z,76.20
2023-04-09T07:53:16.978Z,76.00
2023-04-09T07:55:47.509Z,75.70
2023-04-09T07:58:18.692Z,75.50
2023-04-09T08:00:58.784Z,75.50
2023-04-09T08:03:34.652Z,75.40
2023-04-09T08:06:12.389Z,75.20
2023-04-09T08:08:53.447Z,75.00
2023-04-09T08:11:35.601Z,75.00
2023-04-09T08:14:06.492Z,74.90
2023-04-09T08:16:38.210Z,74.90
2023-04-09T08:19:15.194Z,74.90
2023-04-09T08:21:51.097Z,74.80
2023-04-09T08:24:21.733Z,74.70
2023-04-09T08:26:55.453Z,74.70
2023-04-09T08:29:37.090Z,74.60
2023-04-09T08:32:14.162Z,74.40
2023-04-09T08:34:52.254Z,74.30
2023-04-09T08:37:29.158Z,74.20
2023-04-09T08:40:12.261Z,74.20
2023-04-09T08:42:55.552Z,74.10
2023-04-09T08:45:26.394Z,73.90
2023-04-09T08:48:01.798Z,73.60
2023-04-09T08:50:40.295Z,73.50
2023-04-09T08:53:21.210Z,73.40
2023-04-09T08:55:56.550Z,73.10
2023-04-09T08:58:27.358Z,73.00
2023-04-09T09:01:03.126Z,73.00
2023-04-09T09:03:37.128Z,73.00
2023-04-09T09:06:25.848Z,72.90
2023-04-09T09:09:15.960Z,72.70
2023-04-09T09:11:55.085Z,72.60
2023-04-09T09:14:33.373Z,72.50
2023-04-09T09:17:11.496Z,72.60
2023-04-09T09:19:48.575Z,72.30
2023-04-09T09:22:20.588Z,72.00
2023-04-09T09:25:02.141Z,71.60
2023-04-09T09:27:41.529Z,71.70
2023-04-09T09:30:27.347Z,71.40
2023-04-09T09:33:13.531Z,71.40
2023-04-09T09:36:08.784Z,71.20
2023-04-09T09:38:56.866Z,71.00
2023-04-09T09:41:42.483Z,70.90
2023-04-09T09:44:14.667Z,70.80
2023-04-09T09:46:55.905Z,70.70
2023-04-09T09:49:30.007Z,70.40
2023-04-09T09:52:08.176Z,70.20
2023-04-09T09:54:44.704Z,70.40
2023-04-09T09:57:26.761Z,70.10
2023-04-09T10:00:01.774Z,70.10
2023-04-09T10:02:50.015Z,69.80
2023-04-09T10:05:27.217Z,69.50
2023-04-09T10:08:04.198Z,69.30
2023-04-09T10:10:36.454Z,69.00
2023-04-09T10:13:13.444Z,69.10
2023-04-09T10:15:45.415Z,68.90
2023-04-09T10:18:20.935Z,69.00
2023-04-09T10:21:03.948Z,68.60
2023-04-09T10:23:44.995Z,68.40
2023-04-09T10:26:15.657Z,68.10
2023-04-09T10:29:11.129Z,68.10
2023-04-09T10:32:03.286Z,67.90
2023-04-09T10:34:41.586Z,67.70
2023-04-09T10:37:16.391Z,67.50
2023-04-09T10:39:55.904Z,67.20
2023-04-09T10:42:33.554Z,67.10
2023-04-09T10:45:16.969Z,66.80
2023-04-09T10:47:55.119Z,66.70
2023-04-09T10:50:28.922Z,66.50
2023-04-09T10:53:05.183Z,66.40
2023-04-09T10:55:45.921Z,66.30
2023-04-09T10:58:21.723Z,66.20
2023-04-09T11:00:58.801Z,65.90
2023-04-09T11:03:38.745Z,65.80
2023-04-09T11:06:13.553Z,65.80
2023-04-09T11:08:49.693Z,65.80
2023-04-09T11:11:28.858Z,65.30
2023-04-09T11:14:18.562Z,64.50
2023-04-09T11:16:57.943Z,64.30
2023-04-09T11:19:30.825Z,64.10
2023-04-09T11:22:07.184Z,63.90
2023-04-09T11:24:48.972Z,63.60
2023-04-09T11:27:28.697Z,62.90
2023-04-09T11:29:59.306Z,63.10
2023-04-09T11:32:38.006Z,62.90
2023-04-09T11:35:18.690Z,62.70
2023-04-09T11:37:48.853Z,62.10
2023-04-09T11:40:18.801Z,61.70
2023-04-09T11:42:51.952Z,61.90
2023-04-09T11:45:33.384Z,61.60
2023-04-09T11:48:25.348Z,60.70
2023-04-09T11:51:06.817Z,60.50
2023-04-09T11:53:44.666Z,60.50
2023-04-09T11:56:24.645Z,60.20
2023-04-09T11:59:04.832Z,59.70
2023-04-09T12:01:42.814Z,60.00
2023-04-09T12:04:29.097Z,60.30
2023-04-09T12:07:00.202Z,60.30
2023-04-09T12:09:35.648Z,60.10
2023-04-09T12:12:13.628Z,59.80
2023-04-09T12:14:54.914Z,59.80
2023-04-09T12:17:33.931Z,59.70
2023-04-09T12:20:11.878Z,59.70
2023-04-09T12:22:45.929Z,59.30
2023-04-09T12:25:17.291Z,59.10
2023-04-09T12:27:58.066Z,59.30
2023-04-09T12:30:34.822Z,59.30
2023-04-09T12:33:11.855Z,59.10
2023-04-09T12:35:45.381Z,59.00
2023-04-09T12:38:20.529Z,59.00
2023-04-09T12:40:54.229Z,59.00
2023-04-09T12:43:33.971Z,58.70
2023-04-09T12:46:07.559Z,58.80
2023-04-09T12:48:41.464Z,58.80
2023-04-09T12:51:31.191Z,58.50
2023-04-09T12:54:08.546Z,57.60
2023-04-09T12:56:48.916Z,57.90
2023-04-09T12:59:22.957Z,57.70
2023-04-09T13:02:03.374Z,57.50
2023-04-09T13:04:35.521Z,57.40
2023-04-09T13:07:26.791Z,57.20
2023-04-09T13:09:59.223Z,57.10
2023-04-09T13:12:40.034Z,57.10
2023-04-09T13:15:17.946Z,57.10
2023-04-09T13:17:47.345Z,57.20
2023-04-09T13:20:23.298Z,57.30
2023-04-09T13:23:03.272Z,57.10
2023-04-09T13:25:33.896Z,57.10
2023-04-09T13:28:04.955Z,57.00
2023-04-09T13:30:42.291Z,56.80
2023-04-09T13:33:14.001Z,56.90
2023-04-09T13:35:53.656Z,56.70
2023-04-09T13:38:31.557Z,56.80
2023-04-09T13:41:06.634Z,56.70
2023-04-09T13:43:37.059Z,56.80
2023-04-09T13:46:18.731Z,56.70
2023-04-09T13:48:53.012Z,56.80
2023-04-09T13:51:35.837Z,56.50
2023-04-09T13:54:17.611Z,56.40
2023-04-09T13:56:51.757Z,56.30
2023-04-09T13:59:27.244Z,56.60
2023-04-09T14:01:58.300Z,56.80
2023-04-09T14:04:32.749Z,56.30
2023-04-09T14:07:14.673Z,56.10
2023-04-09T14:10:00.562Z,56.00
2023-04-09T14:12:32.045Z,55.80
2023-04-09T14:15:07.065Z,55.70
2023-04-09T14:17:38.451Z,55.80
2023-04-09T14:20:09.578Z,55.50
2023-04-09T14:22:52.336Z,55.70
2023-04-09T14:25:27.172Z,55.60
2023-04-09T14:28:06.679Z,55.20
2023-04-09T14:30:39.472Z,54.80
2023-04-09T14:33:11.711Z,54.90
2023-04-09T14:35:51.678Z,55.00
2023-04-09T14:38:27.048Z,54.80
2023-04-09T14:41:05.080Z,54.70
2023-04-09T14:43:36.445Z,54.70
2023-04-09T14:46:18.910Z,54.90
2023-04-09T14:48:49.744Z,55.10
2023-04-09T14:51:28.887Z,55.10
2023-04-09T14:54:01.810Z,55.20
2023-04-09T14:56:47.393Z,55.20
2023-04-09T14:59:18.998Z,54.90
2023-04-09T15:01:54.423Z,54.90
2023-04-09T15:04:28.304Z,54.90
2023-04-09T15:07:10.173Z,54.90
2023-04-09T15:09:52.801Z,54.90
2023-04-09T15:12:30.760Z,54.90
2023-04-09T15:15:04.188Z,54.90
2023-04-09T15:17:35.384Z,54.80
2023-04-09T15:20:10.622Z,54.50
2023-04-09T15:22:47.445Z,54.60
2023-04-09T15:25:19.168Z,54.60
2023-04-09T15:28:05.003Z,54.40
2023-04-09T15:31:04.222Z,54.30
2023-04-09T15:33:45.727Z,54.20
2023-04-09T15:39:06.749Z,54.30
2023-04-09T15:41:42.763Z,54.20
2023-04-09T15:44:19.373Z,54.30
2023-04-09T15:46:53.436Z,54.10
2023-04-09T15:49:26.489Z,54.10
2023-04-09T15:52:00.329Z,54.10
2023-04-09T15:54:31.293Z,54.10
2023-04-09T15:57:10.461Z,54.10
2023-04-09T15:59:48.059Z,53.80
2023-04-09T16:02:25.809Z,53.50
2023-04-09T16:04:59.959Z,53.30
2023-04-09T16:07:34.724Z,53.10
2023-04-09T16:10:06.265Z,53.10
2023-04-09T16:12:45.341Z,53.00
2023-04-09T16:15:22.302Z,52.90
2023-04-09T16:18:07.311Z,52.80
2023-04-09T16:20:45.389Z,52.70
2023-04-09T16:23:24.941Z,52.70
2023-04-09T16:26:04.533Z,52.20
2023-04-09T16:28:37.904Z,52.30
2023-04-09T16:31:13.257Z,52.30
2023-04-09T16:33:58.303Z,52.40
2023-04-09T16:36:35.892Z,52.40
2023-04-09T16:39:11.530Z,52.20
2023-04-09T16:41:45.827Z,52.20
2023-04-09T16:44:26.476Z,52.20
2023-04-09T16:47:01.418Z,52.20
2023-04-09T16:49:40.712Z,52.20
2023-04-09T16:52:14.900Z,52.30
2023-04-09T16:54:48.219Z,52.30
2023-04-09T16:57:27.666Z,52.20
2023-04-09T17:02:58.454Z,52.20
2023-04-09T17:05:29.329Z,52.30
2023-04-09T17:08:03.837Z,52.30
2023-04-09T17:10:34.354Z,52.30
2023-04-09T17:13:14.493Z,52.10
2023-04-09T17:15:44.771Z,52.10
2023-04-09T17:18:22.459Z,52.30
2023-04-09T17:21:00.696Z,52.30
2023-04-09T17:23:39.086Z,52.30
2023-04-09T17:26:08.335Z,52.40
2023-04-09T17:28:44.303Z,52.50
2023-04-09T17:31:21.140Z,52.60
2023-04-09T17:34:06.971Z,52.60
2023-04-09T17:36:47.850Z,52.70
2023-04-09T17:39:18.937Z,52.80
2023-04-09T17:41:58.299Z,52.90
2023-04-09T17:44:33.884Z,53.00
2023-04-09T17:47:04.586Z,53.20
2023-04-09T17:49:38.955Z,53.30
2023-04-09T17:54:54.480Z,53.40
2023-04-09T17:57:34.218Z,53.50
2023-04-09T18:03:05.302Z,53.90
2023-04-09T18:05:47.076Z,54.20
2023-04-09T18:08:18.263Z,54.40
2023-04-09T18:11:11.465Z,54.50
2023-04-09T18:13:42.262Z,54.70
2023-04-09T18:16:13.922Z,55.10
2023-04-09T18:18:46.774Z,55.20
2023-04-09T18:21:24.490Z,55.50
2023-04-09T18:23:56.249Z,55.70
2023-04-09T18:26:40.121Z,55.90
2023-04-09T18:29:10.641Z,56.10
2023-04-09T18:31:58.511Z,56.40
2023-04-09T18:34:38.990Z,56.70
2023-04-09T18:37:20.020Z,56.80
2023-04-09T18:39:54.433Z,57.10
2023-04-09T18:42:28.695Z,57.20
2023-04-09T18:45:02.219Z,57.40
2023-04-09T18:47:43.924Z,57.70
2023-04-09T18:50:20.860Z,57.80
2023-04-09T18:52:50.714Z,58.10
2023-04-09T18:55:23.872Z,58.20
2023-04-09T18:57:55.262Z,58.40
2023-04-09T19:00:35.138Z,58.50
2023-04-09T19:03:11.836Z,58.60
2023-04-09T19:05:52.233Z,58.80
2023-04-09T19:08:40.230Z,59.00
2023-04-09T19:11:14.933Z,59.20
2023-04-09T19:13:50.199Z,59.40
2023-04-09T19:16:23.825Z,59.50
2023-04-09T19:18:58.715Z,59.70
2023-04-09T19:21:30.369Z,59.80
2023-04-09T19:24:12.298Z,59.90
2023-04-09T19:26:42.728Z,60.10
2023-04-09T19:29:16.569Z,60.20
2023-04-09T19:31:52.118Z,60.30
2023-04-09T19:34:23.077Z,60.40
2023-04-09T19:37:01.689Z,60.50
2023-04-09T19:39:49.316Z,60.70
2023-04-09T19:42:23.427Z,60.80
2023-04-09T19:45:01.094Z,60.90
2023-04-09T19:47:38.548Z,61.00
2023-04-09T19:50:20.055Z,61.20
2023-04-09T19:53:00.402Z,61.30
2023-04-09T19:55:37.272Z,61.50
2023-04-09T19:58:23.579Z,61.80
2023-04-09T20:01:05.497Z,61.80
2023-04-09T20:03:52.291Z,61.80
2023-04-09T20:06:36.347Z,62.00
2023-04-09T20:09:24.465Z,62.20
2023-04-09T20:12:13.635Z,62.20
2023-04-09T20:14:59.138Z,62.40
2023-04-09T20:17:31.240Z,62.70
2023-04-09T20:20:22.491Z,62.80
2023-04-09T20:22:56.836Z,63.00
2023-04-09T20:25:37.283Z,63.00
2023-04-09T20:28:13.174Z,63.20
2023-04-09T20:30:44.737Z,63.30
2023-04-09T20:33:15.171Z,63.50
2023-04-09T20:35:47.652Z,63.70
2023-04-09T20:38:26.573Z,63.90
2023-04-09T20:41:03.689Z,64.00
2023-04-09T20:43:44.545Z,64.10
2023-04-09T20:46:17.936Z,64.20
2023-04-09T20:48:48.423Z,64.30
2023-04-09T20:51:26.982Z,64.40
2023-04-09T20:53:57.422Z,64.40
2023-04-09T20:56:38.368Z,64.50
2023-04-09T20:59:15.818Z,64.50
2023-04-09T21:01:56.901Z,64.50
2023-04-09T21:04:32.871Z,64.50
2023-04-09T21:07:10.802Z,64.40
2023-04-09T21:09:42.398Z,64.40
2023-04-09T21:12:23.165Z,64.60
2023-04-09T21:14:57.407Z,64.70
2023-04-09T21:17:29.167Z,64.80
2023-04-09T21:19:59.167Z,64.80
2023-04-09T21:22:32.993Z,64.80
2023-04-09T21:25:15.242Z,64.80
2023-04-09T21:27:52.154Z,64.80
2023-04-09T21:30:24.811Z,64.90
2023-04-09T21:33:04.214Z,64.90
2023-04-09T21:35:35.373Z,65.00
2023-04-09T21:38:12.205Z,65.10
2023-04-09T21:40:49.309Z,65.20
2023-04-09T21:43:20.142Z,65.20
2023-04-09T21:46:07.478Z,65.10
2023-04-09T21:48:42.025Z,65.00
2023-04-09T21:51:11.477Z,64.90
2023-04-09T21:53:45.034Z,65.10
2023-04-09T21:56:16.071Z,65.20
2023-04-09T21:58:47.382Z,65.40
2023-04-09T22:01:29.414Z,65.40
2023-04-09T22:04:07.885Z,65.70
2023-04-09T22:06:41.969Z,66.10
2023-04-09T22:09:15.301Z,66.20
2023-04-09T22:11:52.289Z,66.40
2023-04-09T22:14:31.846Z,66.50
2023-04-09T22:17:11.139Z,66.50
2023-04-09T22:19:41.458Z,66.60
2023-04-09T22:22:16.801Z,66.60
2023-04-09T22:24:45.319Z,66.60
2023-04-09T22:27:22.758Z,66.60
2023-04-09T22:29:54.829Z,66.60
2023-04-09T22:32:26.873Z,66.70
2023-04-09T22:35:06.740Z,66.70
2023-04-09T22:37:40.652Z,66.60
2023-04-09T22:40:20.655Z,66.80
2023-04-09T22:42:48.879Z,67.10
2023-04-09T22:45:22.978Z,67.10
2023-04-09T22:48:00.549Z,67.20
2023-04-09T22:50:31.409Z,67.30
2023-04-09T22:53:01.601Z,67.50
2023-04-09T22:55:35.440Z,67.30
2023-04-09T22:58:06.348Z,67.30
2023-04-09T23:00:51.356Z,67.20
2023-04-09T23:03:37.837Z,67.10
2023-04-09T23:06:10.611Z,67.10
2023-04-09T23:08:47.659Z,67.10
2023-04-09T23:11:17.103Z,67.00
2023-04-09T23:13:52.885Z,67.00
2023-04-09T23:16:23.750Z,67.00
2023-04-09T23:19:00.938Z,67.00
2023-04-09T23:21:36.646Z,67.00
2023-04-09T23:24:11.073Z,66.90
2023-04-09T23:26:44.175Z,66.80
2023-04-09T23:29:22.543Z,66.60
2023-04-09T23:31:57.375Z,66.60
2023-04-09T23:34:42.328Z,66.70
2023-04-09T23:37:13.628Z,66.80
2023-04-09T23:39:43.432Z,66.90
2023-04-09T23:42:14.635Z,66.90
2023-04-09T23:44:47.833Z,67.00
2023-04-09T23:47:25.611Z,67.10
2023-04-09T23:50:19.550Z,67.10
2023-04-09T23:52:54.022Z,67.20
2023-04-09T23:55:32.991Z,67.20
2023-04-09T23:58:03.801Z,67.10
